Oil Center, New Mexico
Current Conditions -  °F | °C
As of 3:55 AM on Thursday 23 Oct 2014 (Local Time) from KHOB Reporting Station
Moderate Fog Moderate Fog  
Wind Chill: 55°   Ceiling: 100
Heat Index: 55°   Visibility: 0mi
Dew Point: 55°   Wind: 8mph
Humidity: 100%   Direction: 180°S
Pressure: 30.13"   Gusts: NA
Location:  32.6132°N, 103.326°W
Report Text: KHOB 230955Z AUTO 18007KT M1/4SM FG OVC001 13/13 A3013 RMK AO2
Loading
Personal Weather Stations






























Interactive Weather Map
Tropical Storm Tracking
New forecast layout! Learn more

10-Day Weather Forecast

Advertisements
Track Severe Weather on mobile